sensor_id;sensor_type;location;lat;lon;timestamp;P1;durP1;ratioP1;P2;durP2;ratioP2
63699;SDS011;49845;47.130;142.766;2022-12-29T01:00:27;15.05;;;6.80;;
63699;SDS011;49845;47.130;142.766;2022-12-29T01:03:17;13.90;;;6.50;;
63699;SDS011;49845;47.130;142.766;2022-12-29T01:05:50;13.07;;;6.88;;
63699;SDS011;49845;47.130;142.766;2022-12-29T01:08:26;13.32;;;7.13;;
63699;SDS011;49845;47.130;142.766;2022-12-29T01:10:58;12.23;;;6.43;;
63699;SDS011;49845;47.130;142.766;2022-12-29T01:13:28;16.58;;;7.70;;
63699;SDS011;49845;47.130;142.766;2022-12-29T01:16:00;14.98;;;7.80;;
63699;SDS011;49845;47.130;142.766;2022-12-29T01:18:33;16.95;;;8.18;;
63699;SDS011;49845;47.130;142.766;2022-12-29T01:21:06;15.20;;;7.60;;
63699;SDS011;49845;47.130;142.766;2022-12-29T01:23:39;16.67;;;7.25;;
63699;SDS011;49845;47.130;142.766;2022-12-29T01:26:14;13.35;;;7.28;;
63699;SDS011;49845;47.130;142.766;2022-12-29T01:28:48;13.70;;;6.63;;
63699;SDS011;49845;47.130;142.766;2022-12-29T01:31:23;13.07;;;6.07;;
63699;SDS011;49845;47.130;142.766;2022-12-29T01:33:54;12.93;;;5.95;;
63699;SDS011;49845;47.130;142.766;2022-12-29T01:36:24;12.68;;;5.90;;
63699;SDS011;49845;47.130;142.766;2022-12-29T01:38:55;16.40;;;5.53;;
63699;SDS011;49845;47.130;142.766;2022-12-29T01:41:30;11.13;;;5.43;;
63699;SDS011;49845;47.130;142.766;2022-12-29T01:44:01;13.48;;;7.13;;
63699;SDS011;49845;47.130;142.766;2022-12-29T01:46:33;12.82;;;5.40;;
63699;SDS011;49845;47.130;142.766;2022-12-29T01:49:10;10.60;;;6.35;;
63699;SDS011;49845;47.130;142.766;2022-12-29T01:51:45;10.30;;;5.03;;
63699;SDS011;49845;47.130;142.766;2022-12-29T01:54:22;12.75;;;6.13;;
63699;SDS011;49845;47.130;142.766;2022-12-29T01:56:57;11.45;;;4.25;;
63699;SDS011;49845;47.130;142.766;2022-12-29T01:59:30;8.93;;;4.68;;
63699;SDS011;49845;47.130;142.766;2022-12-29T02:02:11;11.60;;;4.38;;
63699;SDS011;49845;47.130;142.766;2022-12-29T02:04:44;10.68;;;4.88;;
63699;SDS011;49845;47.130;142.766;2022-12-29T03:13:00;6.70;;;3.05;;
63699;SDS011;49845;47.130;142.766;2022-12-29T03:15:52;7.68;;;2.80;;
63699;SDS011;49845;47.130;142.766;2022-12-29T03:18:35;5.82;;;2.83;;
63699;SDS011;49845;47.130;142.766;2022-12-29T03:21:29;6.95;;;2.67;;
63699;SDS011;49845;47.130;142.766;2022-12-29T03:24:22;9.07;;;3.05;;
63699;SDS011;49845;47.130;142.766;2022-12-29T03:26:55;7.95;;;3.00;;
63699;SDS011;49845;47.130;142.766;2022-12-29T03:29:30;7.40;;;2.85;;
63699;SDS011;49845;47.130;142.766;2022-12-29T03:32:09;9.07;;;2.50;;
63699;SDS011;49845;47.130;142.766;2022-12-29T03:34:44;7.03;;;3.00;;
63699;SDS011;49845;47.130;142.766;2022-12-29T03:37:15;4.55;;;2.35;;
63699;SDS011;49845;47.130;142.766;2022-12-29T03:39:49;5.13;;;2.92;;
63699;SDS011;49845;47.130;142.766;2022-12-29T03:42:24;6.50;;;2.42;;
63699;SDS011;49845;47.130;142.766;2022-12-29T03:45:18;6.00;;;2.40;;
63699;SDS011;49845;47.130;142.766;2022-12-29T03:47:49;7.57;;;2.38;;
63699;SDS011;49845;47.130;142.766;2022-12-29T03:50:20;5.22;;;2.20;;
63699;SDS011;49845;47.130;142.766;2022-12-29T03:52:51;6.20;;;2.05;;
63699;SDS011;49845;47.130;142.766;2022-12-29T03:55:22;3.35;;;2.08;;
63699;SDS011;49845;47.130;142.766;2022-12-29T03:57:55;3.83;;;1.98;;
63699;SDS011;49845;47.130;142.766;2022-12-29T04:00:28;4.25;;;2.20;;
63699;SDS011;49845;47.130;142.766;2022-12-29T04:02:58;5.03;;;2.42;;
63699;SDS011;49845;47.130;142.766;2022-12-29T04:05:29;5.20;;;2.58;;
63699;SDS011;49845;47.130;142.766;2022-12-29T04:08:16;5.30;;;2.33;;
63699;SDS011;49845;47.130;142.766;2022-12-29T04:10:49;6.47;;;2.28;;
63699;SDS011;49845;47.130;142.766;2022-12-29T04:13:20;5.05;;;2.10;;
63699;SDS011;49845;47.130;142.766;2022-12-29T04:15:52;8.68;;;2.75;;
63699;SDS011;49845;47.130;142.766;2022-12-29T04:18:25;5.70;;;2.35;;
63699;SDS011;49845;47.130;142.766;2022-12-29T04:20:56;5.30;;;2.03;;
63699;SDS011;49845;47.130;142.766;2022-12-29T04:23:32;6.15;;;2.47;;
63699;SDS011;49845;47.130;142.766;2022-12-29T04:26:04;4.63;;;2.30;;
63699;SDS011;49845;47.130;142.766;2022-12-29T04:28:36;4.95;;;2.20;;
63699;SDS011;49845;47.130;142.766;2022-12-29T04:31:09;4.57;;;1.92;;
63699;SDS011;49845;47.130;142.766;2022-12-29T04:33:40;8.88;;;2.85;;
63699;SDS011;49845;47.130;142.766;2022-12-29T04:36:10;4.07;;;2.10;;
63699;SDS011;49845;47.130;142.766;2022-12-29T04:38:43;4.75;;;2.20;;
63699;SDS011;49845;47.130;142.766;2022-12-29T04:41:22;3.83;;;2.13;;
63699;SDS011;49845;47.130;142.766;2022-12-29T04:43:52;4.50;;;2.10;;
63699;SDS011;49845;47.130;142.766;2022-12-29T04:46:34;2.85;;;1.88;;
63699;SDS011;49845;47.130;142.766;2022-12-29T04:49:15;2.97;;;1.83;;
63699;SDS011;49845;47.130;142.766;2022-12-29T04:51:46;5.25;;;2.97;;
63699;SDS011;49845;47.130;142.766;2022-12-29T04:54:17;4.32;;;2.45;;
63699;SDS011;49845;47.130;142.766;2022-12-29T04:56:47;3.97;;;2.05;;
63699;SDS011;49845;47.130;142.766;2022-12-29T04:59:18;5.15;;;2.10;;
63699;SDS011;49845;47.130;142.766;2022-12-29T05:01:50;5.15;;;2.30;;
63699;SDS011;49845;47.130;142.766;2022-12-29T05:04:22;5.18;;;2.33;;
63699;SDS011;49845;47.130;142.766;2022-12-29T05:06:52;2.80;;;1.90;;
63699;SDS011;49845;47.130;142.766;2022-12-29T05:09:23;5.10;;;2.25;;
63699;SDS011;49845;47.130;142.766;2022-12-29T05:11:54;5.00;;;2.35;;
63699;SDS011;49845;47.130;142.766;2022-12-29T05:14:25;2.75;;;1.73;;
63699;SDS011;49845;47.130;142.766;2022-12-29T05:17:00;2.40;;;1.58;;
63699;SDS011;49845;47.130;142.766;2022-12-29T05:19:31;3.63;;;2.42;;
63699;SDS011;49845;47.130;142.766;2022-12-29T05:22:02;7.22;;;2.08;;
63699;SDS011;49845;47.130;142.766;2022-12-29T05:24:33;5.28;;;2.22;;
63699;SDS011;49845;47.130;142.766;2022-12-29T05:27:20;4.10;;;2.42;;
63699;SDS011;49845;47.130;142.766;2022-12-29T05:29:50;3.30;;;2.63;;
63699;SDS011;49845;47.130;142.766;2022-12-29T05:32:24;4.70;;;2.05;;
63699;SDS011;49845;47.130;142.766;2022-12-29T05:34:58;3.90;;;2.10;;
63699;SDS011;49845;47.130;142.766;2022-12-29T05:37:29;2.42;;;2.03;;
63699;SDS011;49845;47.130;142.766;2022-12-29T05:40:00;6.20;;;2.55;;
63699;SDS011;49845;47.130;142.766;2022-12-29T05:42:30;5.07;;;2.35;;
63699;SDS011;49845;47.130;142.766;2022-12-29T05:45:01;2.78;;;1.98;;
63699;SDS011;49845;47.130;142.766;2022-12-29T05:47:36;7.53;;;2.22;;
63699;SDS011;49845;47.130;142.766;2022-12-29T05:50:07;3.78;;;2.15;;
63699;SDS011;49845;47.130;142.766;2022-12-29T05:52:39;4.13;;;2.55;;
63699;SDS011;49845;47.130;142.766;2022-12-29T05:55:13;3.72;;;2.17;;
63699;SDS011;49845;47.130;142.766;2022-12-29T05:57:44;7.32;;;2.25;;
63699;SDS011;49845;47.130;142.766;2022-12-29T06:00:15;5.10;;;2.28;;
63699;SDS011;49845;47.130;142.766;2022-12-29T06:02:47;3.97;;;2.40;;
63699;SDS011;49845;47.130;142.766;2022-12-29T06:05:18;7.30;;;2.40;;
63699;SDS011;49845;47.130;142.766;2022-12-29T06:07:49;2.72;;;1.90;;
63699;SDS011;49845;47.130;142.766;2022-12-29T06:10:20;4.53;;;2.10;;
63699;SDS011;49845;47.130;142.766;2022-12-29T06:12:51;3.42;;;1.88;;
63699;SDS011;49845;47.130;142.766;2022-12-29T06:15:21;5.68;;;2.65;;
63699;SDS011;49845;47.130;142.766;2022-12-29T06:17:56;3.63;;;1.80;;
63699;SDS011;49845;47.130;142.766;2022-12-29T06:20:46;6.97;;;2.53;;
63699;SDS011;49845;47.130;142.766;2022-12-29T06:23:17;4.20;;;2.13;;
63699;SDS011;49845;47.130;142.766;2022-12-29T06:25:47;2.03;;;1.75;;
63699;SDS011;49845;47.130;142.766;2022-12-29T06:28:21;8.27;;;3.10;;
63699;SDS011;49845;47.130;142.766;2022-12-29T06:30:52;10.32;;;3.08;;
63699;SDS011;49845;47.130;142.766;2022-12-29T06:33:24;7.15;;;2.28;;
63699;SDS011;49845;47.130;142.766;2022-12-29T06:35:57;10.10;;;2.58;;
63699;SDS011;49845;47.130;142.766;2022-12-29T06:38:28;8.07;;;2.38;;
63699;SDS011;49845;47.130;142.766;2022-12-29T06:41:01;4.40;;;2.35;;
63699;SDS011;49845;47.130;142.766;2022-12-29T06:43:32;6.50;;;2.42;;
63699;SDS011;49845;47.130;142.766;2022-12-29T06:46:05;5.75;;;2.40;;
63699;SDS011;49845;47.130;142.766;2022-12-29T06:48:38;6.50;;;2.40;;
63699;SDS011;49845;47.130;142.766;2022-12-29T06:51:09;8.43;;;2.47;;
63699;SDS011;49845;47.130;142.766;2022-12-29T06:53:43;5.80;;;2.78;;
63699;SDS011;49845;47.130;142.766;2022-12-29T06:56:13;4.85;;;2.80;;
63699;SDS011;49845;47.130;142.766;2022-12-29T06:58:44;5.90;;;2.42;;
63699;SDS011;49845;47.130;142.766;2022-12-29T07:04:06;4.68;;;2.47;;
63699;SDS011;49845;47.130;142.766;2022-12-29T07:06:41;7.70;;;2.50;;
63699;SDS011;49845;47.130;142.766;2022-12-29T07:09:29;4.78;;;2.28;;
63699;SDS011;49845;47.130;142.766;2022-12-29T07:12:07;5.57;;;2.83;;
63699;SDS011;49845;47.130;142.766;2022-12-29T07:14:38;7.78;;;2.47;;
63699;SDS011;49845;47.130;142.766;2022-12-29T07:17:21;12.60;;;3.42;;
63699;SDS011;49845;47.130;142.766;2022-12-29T07:20:06;13.35;;;2.65;;
63699;SDS011;49845;47.130;142.766;2022-12-29T07:22:41;5.13;;;2.80;;
63699;SDS011;49845;47.130;142.766;2022-12-29T07:25:12;4.70;;;2.17;;
63699;SDS011;49845;47.130;142.766;2022-12-29T07:27:44;6.97;;;2.45;;
63699;SDS011;49845;47.130;142.766;2022-12-29T07:30:14;5.97;;;3.10;;
63699;SDS011;49845;47.130;142.766;2022-12-29T07:32:45;12.75;;;2.85;;
63699;SDS011;49845;47.130;142.766;2022-12-29T07:35:18;10.05;;;3.15;;
63699;SDS011;49845;47.130;142.766;2022-12-29T07:37:48;5.57;;;2.33;;
63699;SDS011;49845;47.130;142.766;2022-12-29T07:40:19;6.43;;;2.47;;
63699;SDS011;49845;47.130;142.766;2022-12-29T07:42:50;8.05;;;2.90;;
63699;SDS011;49845;47.130;142.766;2022-12-29T07:45:20;6.82;;;2.90;;
63699;SDS011;49845;47.130;142.766;2022-12-29T07:47:51;10.38;;;2.95;;
63699;SDS011;49845;47.130;142.766;2022-12-29T07:50:23;4.30;;;2.60;;
63699;SDS011;49845;47.130;142.766;2022-12-29T07:52:54;5.45;;;2.38;;
63699;SDS011;49845;47.130;142.766;2022-12-29T07:55:25;6.40;;;2.85;;
63699;SDS011;49845;47.130;142.766;2022-12-29T07:57:57;5.85;;;2.72;;
63699;SDS011;49845;47.130;142.766;2022-12-29T08:00:38;7.53;;;2.42;;
63699;SDS011;49845;47.130;142.766;2022-12-29T08:03:25;6.80;;;2.40;;
63699;SDS011;49845;47.130;142.766;2022-12-29T08:05:58;9.75;;;3.17;;
63699;SDS011;49845;47.130;142.766;2022-12-29T08:08:29;4.30;;;2.30;;
63699;SDS011;49845;47.130;142.766;2022-12-29T08:10:59;9.60;;;3.78;;
63699;SDS011;49845;47.130;142.766;2022-12-29T08:13:30;9.18;;;4.50;;
63699;SDS011;49845;47.130;142.766;2022-12-29T08:16:07;16.02;;;4.82;;
63699;SDS011;49845;47.130;142.766;2022-12-29T08:18:38;8.82;;;4.15;;
63699;SDS011;49845;47.130;142.766;2022-12-29T08:27:22;13.43;;;4.97;;
63699;SDS011;49845;47.130;142.766;2022-12-29T08:29:54;8.88;;;2.92;;
63699;SDS011;49845;47.130;142.766;2022-12-29T08:32:26;4.28;;;2.17;;
63699;SDS011;49845;47.130;142.766;2022-12-29T08:34:57;4.47;;;3.03;;
63699;SDS011;49845;47.130;142.766;2022-12-29T08:37:31;8.00;;;3.58;;
63699;SDS011;49845;47.130;142.766;2022-12-29T08:40:05;7.03;;;2.90;;
63699;SDS011;49845;47.130;142.766;2022-12-29T08:42:38;10.35;;;4.93;;
63699;SDS011;49845;47.130;142.766;2022-12-29T08:45:26;6.85;;;3.33;;
63699;SDS011;49845;47.130;142.766;2022-12-29T08:47:56;4.45;;;3.00;;
63699;SDS011;49845;47.130;142.766;2022-12-29T08:50:42;3.70;;;2.60;;
63699;SDS011;49845;47.130;142.766;2022-12-29T08:53:51;2.78;;;1.98;;
63699;SDS011;49845;47.130;142.766;2022-12-29T08:56:23;6.00;;;2.55;;
63699;SDS011;49845;47.130;142.766;2022-12-29T08:58:58;4.95;;;3.50;;
63699;SDS011;49845;47.130;142.766;2022-12-29T09:01:29;8.20;;;4.50;;
63699;SDS011;49845;47.130;142.766;2022-12-29T09:04:17;9.75;;;2.97;;
63699;SDS011;49845;47.130;142.766;2022-12-29T09:06:48;8.57;;;3.72;;
63699;SDS011;49845;47.130;142.766;2022-12-29T09:09:20;9.32;;;3.72;;
63699;SDS011;49845;47.130;142.766;2022-12-29T09:12:10;5.20;;;3.10;;
63699;SDS011;49845;47.130;142.766;2022-12-29T09:14:42;7.75;;;4.07;;
63699;SDS011;49845;47.130;142.766;2022-12-29T09:17:13;5.25;;;3.20;;
63699;SDS011;49845;47.130;142.766;2022-12-29T09:20:01;3.60;;;2.55;;
63699;SDS011;49845;47.130;142.766;2022-12-29T09:22:35;7.13;;;2.72;;
63699;SDS011;49845;47.130;142.766;2022-12-29T09:25:09;5.40;;;2.92;;
63699;SDS011;49845;47.130;142.766;2022-12-29T09:27:42;4.97;;;2.47;;
63699;SDS011;49845;47.130;142.766;2022-12-29T09:30:31;3.58;;;2.08;;
63699;SDS011;49845;47.130;142.766;2022-12-29T09:33:05;3.83;;;2.50;;
63699;SDS011;49845;47.130;142.766;2022-12-29T09:35:41;6.10;;;2.20;;
63699;SDS011;49845;47.130;142.766;2022-12-29T09:38:14;4.05;;;2.10;;
63699;SDS011;49845;47.130;142.766;2022-12-29T09:40:45;4.40;;;2.85;;
63699;SDS011;49845;47.130;142.766;2022-12-29T09:43:37;4.85;;;2.88;;
63699;SDS011;49845;47.130;142.766;2022-12-29T09:46:23;4.00;;;2.30;;
63699;SDS011;49845;47.130;142.766;2022-12-29T09:48:57;4.30;;;2.70;;
63699;SDS011;49845;47.130;142.766;2022-12-29T09:51:37;2.85;;;2.47;;
63699;SDS011;49845;47.130;142.766;2022-12-29T09:54:17;4.50;;;2.92;;
63699;SDS011;49845;47.130;142.766;2022-12-29T09:57:00;7.43;;;3.35;;
63699;SDS011;49845;47.130;142.766;2022-12-29T09:59:35;3.97;;;2.70;;
63699;SDS011;49845;47.130;142.766;2022-12-29T10:02:15;4.15;;;3.05;;
63699;SDS011;49845;47.130;142.766;2022-12-29T10:04:59;6.93;;;2.70;;
63699;SDS011;49845;47.130;142.766;2022-12-29T10:07:40;6.10;;;3.20;;
63699;SDS011;49845;47.130;142.766;2022-12-29T10:10:31;4.65;;;2.97;;
63699;SDS011;49845;47.130;142.766;2022-12-29T10:13:22;5.28;;;2.60;;
63699;SDS011;49845;47.130;142.766;2022-12-29T10:16:07;7.32;;;2.63;;
63699;SDS011;49845;47.130;142.766;2022-12-29T10:18:50;4.32;;;2.30;;
63699;SDS011;49845;47.130;142.766;2022-12-29T10:21:58;5.97;;;3.22;;
63699;SDS011;49845;47.130;142.766;2022-12-29T10:24:44;6.30;;;2.78;;
63699;SDS011;49845;47.130;142.766;2022-12-29T10:27:24;5.50;;;2.67;;
63699;SDS011;49845;47.130;142.766;2022-12-29T10:29:55;4.75;;;2.78;;
63699;SDS011;49845;47.130;142.766;2022-12-29T10:32:33;5.20;;;2.45;;
63699;SDS011;49845;47.130;142.766;2022-12-29T10:35:10;7.55;;;2.53;;
63699;SDS011;49845;47.130;142.766;2022-12-29T10:37:52;4.97;;;2.65;;
63699;SDS011;49845;47.130;142.766;2022-12-29T10:40:28;3.47;;;2.25;;
63699;SDS011;49845;47.130;142.766;2022-12-29T10:43:24;4.32;;;2.60;;
63699;SDS011;49845;47.130;142.766;2022-12-29T10:45:57;3.47;;;2.28;;
63699;SDS011;49845;47.130;142.766;2022-12-29T10:48:35;4.38;;;2.58;;
63699;SDS011;49845;47.130;142.766;2022-12-29T10:51:08;5.05;;;2.90;;
63699;SDS011;49845;47.130;142.766;2022-12-29T10:53:53;3.78;;;2.30;;
63699;SDS011;49845;47.130;142.766;2022-12-29T10:56:30;4.22;;;2.40;;
63699;SDS011;49845;47.130;142.766;2022-12-29T10:59:20;6.43;;;2.55;;
63699;SDS011;49845;47.130;142.766;2022-12-29T11:01:54;8.13;;;2.63;;
63699;SDS011;49845;47.130;142.766;2022-12-29T11:04:38;9.27;;;2.65;;
63699;SDS011;49845;47.130;142.766;2022-12-29T11:07:20;3.25;;;2.35;;
63699;SDS011;49845;47.130;142.766;2022-12-29T11:09:57;4.95;;;2.30;;
63699;SDS011;49845;47.130;142.766;2022-12-29T11:15:43;4.45;;;2.85;;
63699;SDS011;49845;47.130;142.766;2022-12-29T11:18:19;5.53;;;2.50;;
63699;SDS011;49845;47.130;142.766;2022-12-29T11:20:56;5.03;;;2.45;;
63699;SDS011;49845;47.130;142.766;2022-12-29T11:23:31;3.17;;;2.33;;
63699;SDS011;49845;47.130;142.766;2022-12-29T11:26:07;5.97;;;2.63;;
63699;SDS011;49845;47.130;142.766;2022-12-29T11:28:44;4.97;;;2.70;;
63699;SDS011;49845;47.130;142.766;2022-12-29T11:31:21;3.38;;;2.50;;
63699;SDS011;49845;47.130;142.766;2022-12-29T11:33:53;6.35;;;2.65;;
63699;SDS011;49845;47.130;142.766;2022-12-29T11:36:25;12.63;;;2.90;;
63699;SDS011;49845;47.130;142.766;2022-12-29T11:38:57;6.65;;;2.70;;
63699;SDS011;49845;47.130;142.766;2022-12-29T11:41:28;6.13;;;2.45;;
63699;SDS011;49845;47.130;142.766;2022-12-29T11:44:10;5.47;;;2.60;;
63699;SDS011;49845;47.130;142.766;2022-12-29T11:46:46;3.97;;;2.70;;
63699;SDS011;49845;47.130;142.766;2022-12-29T11:49:23;8.40;;;2.53;;
63699;SDS011;49845;47.130;142.766;2022-12-29T11:52:00;5.88;;;2.85;;
63699;SDS011;49845;47.130;142.766;2022-12-29T11:54:31;5.40;;;3.03;;
63699;SDS011;49845;47.130;142.766;2022-12-29T11:57:09;3.45;;;2.65;;
63699;SDS011;49845;47.130;142.766;2022-12-29T11:59:45;4.72;;;2.80;;
63699;SDS011;49845;47.130;142.766;2022-12-29T12:02:35;3.90;;;2.70;;
63699;SDS011;49845;47.130;142.766;2022-12-29T12:05:16;5.63;;;2.83;;
63699;SDS011;49845;47.130;142.766;2022-12-29T12:07:58;2.90;;;2.17;;
63699;SDS011;49845;47.130;142.766;2022-12-29T12:10:43;5.43;;;2.90;;
63699;SDS011;49845;47.130;142.766;2022-12-29T12:13:22;6.53;;;2.83;;
63699;SDS011;49845;47.130;142.766;2022-12-29T12:15:57;4.00;;;2.90;;
63699;SDS011;49845;47.130;142.766;2022-12-29T12:18:38;7.50;;;2.80;;
63699;SDS011;49845;47.130;142.766;2022-12-29T12:21:16;5.05;;;2.75;;
63699;SDS011;49845;47.130;142.766;2022-12-29T12:24:03;9.43;;;2.65;;
63699;SDS011;49845;47.130;142.766;2022-12-29T12:26:49;6.10;;;2.85;;
63699;SDS011;49845;47.130;142.766;2022-12-29T12:29:35;4.60;;;2.47;;
63699;SDS011;49845;47.130;142.766;2022-12-29T12:32:12;4.93;;;2.50;;
63699;SDS011;49845;47.130;142.766;2022-12-29T12:34:47;3.88;;;2.83;;
63699;SDS011;49845;47.130;142.766;2022-12-29T12:37:39;5.25;;;2.67;;
63699;SDS011;49845;47.130;142.766;2022-12-29T12:40:43;4.65;;;2.35;;
63699;SDS011;49845;47.130;142.766;2022-12-29T12:43:32;32.45;;;9.43;;
63699;SDS011;49845;47.130;142.766;2022-12-29T12:49:36;18.45;;;6.05;;
63699;SDS011;49845;47.130;142.766;2022-12-29T12:52:38;7.28;;;3.40;;
63699;SDS011;49845;47.130;142.766;2022-12-29T12:55:31;5.75;;;2.80;;
63699;SDS011;49845;47.130;142.766;2022-12-29T12:58:15;5.28;;;2.80;;
63699;SDS011;49845;47.130;142.766;2022-12-29T13:00:57;3.92;;;2.78;;
63699;SDS011;49845;47.130;142.766;2022-12-29T13:03:41;5.35;;;2.55;;
63699;SDS011;49845;47.130;142.766;2022-12-29T13:06:30;4.70;;;2.70;;
63699;SDS011;49845;47.130;142.766;2022-12-29T13:09:21;7.60;;;3.53;;
63699;SDS011;49845;47.130;142.766;2022-12-29T13:12:19;17.02;;;6.80;;
63699;SDS011;49845;47.130;142.766;2022-12-29T13:15:04;8.95;;;6.25;;
63699;SDS011;49845;47.130;142.766;2022-12-29T13:17:45;14.73;;;8.40;;
63699;SDS011;49845;47.130;142.766;2022-12-29T13:20:27;13.30;;;7.43;;
63699;SDS011;49845;47.130;142.766;2022-12-29T13:23:09;9.65;;;5.65;;
63699;SDS011;49845;47.130;142.766;2022-12-29T13:25:55;13.95;;;4.95;;
63699;SDS011;49845;47.130;142.766;2022-12-29T13:28:35;8.80;;;3.60;;
63699;SDS011;49845;47.130;142.766;2022-12-29T13:31:20;5.88;;;3.92;;
63699;SDS011;49845;47.130;142.766;2022-12-29T13:34:00;6.85;;;3.83;;
63699;SDS011;49845;47.130;142.766;2022-12-29T13:36:51;5.10;;;3.67;;
63699;SDS011;49845;47.130;142.766;2022-12-29T13:39:26;10.15;;;4.10;;
63699;SDS011;49845;47.130;142.766;2022-12-29T13:42:03;9.35;;;4.40;;
63699;SDS011;49845;47.130;142.766;2022-12-29T13:44:38;16.77;;;6.53;;
63699;SDS011;49845;47.130;142.766;2022-12-29T13:47:20;24.60;;;8.02;;
63699;SDS011;49845;47.130;142.766;2022-12-29T13:50:03;18.90;;;8.88;;
63699;SDS011;49845;47.130;142.766;2022-12-29T13:52:49;17.13;;;6.32;;
63699;SDS011;49845;47.130;142.766;2022-12-29T13:55:33;5.88;;;3.75;;
63699;SDS011;49845;47.130;142.766;2022-12-29T13:58:12;9.35;;;3.60;;
63699;SDS011;49845;47.130;142.766;2022-12-29T14:00:52;7.82;;;3.90;;
63699;SDS011;49845;47.130;142.766;2022-12-29T14:03:49;4.53;;;2.88;;
63699;SDS011;49845;47.130;142.766;2022-12-29T14:06:22;7.25;;;2.70;;
63699;SDS011;49845;47.130;142.766;2022-12-29T14:08:55;8.48;;;3.40;;
63699;SDS011;49845;47.130;142.766;2022-12-29T14:11:31;7.35;;;3.33;;
63699;SDS011;49845;47.130;142.766;2022-12-29T14:14:10;10.93;;;4.10;;
63699;SDS011;49845;47.130;142.766;2022-12-29T14:16:46;13.27;;;5.70;;
63699;SDS011;49845;47.130;142.766;2022-12-29T14:19:19;12.23;;;5.70;;
63699;SDS011;49845;47.130;142.766;2022-12-29T14:21:54;5.28;;;3.45;;
63699;SDS011;49845;47.130;142.766;2022-12-29T14:30:53;11.90;;;6.22;;
63699;SDS011;49845;47.130;142.766;2022-12-29T14:33:28;19.08;;;10.50;;
63699;SDS011;49845;47.130;142.766;2022-12-29T14:38:54;144.70;;;35.08;;
63699;SDS011;49845;47.130;142.766;2022-12-29T14:41:26;80.40;;;23.98;;
63699;SDS011;49845;47.130;142.766;2022-12-29T14:44:00;50.75;;;16.35;;
63699;SDS011;49845;47.130;142.766;2022-12-29T14:46:44;36.20;;;11.10;;
63699;SDS011;49845;47.130;142.766;2022-12-29T14:49:28;11.93;;;5.97;;
63699;SDS011;49845;47.130;142.766;2022-12-29T14:52:07;19.75;;;7.53;;
63699;SDS011;49845;47.130;142.766;2022-12-29T14:54:48;16.67;;;7.85;;
63699;SDS011;49845;47.130;142.766;2022-12-29T15:00:14;5.15;;;3.78;;
63699;SDS011;49845;47.130;142.766;2022-12-29T15:02:54;7.00;;;3.13;;
63699;SDS011;49845;47.130;142.766;2022-12-29T15:05:35;6.25;;;2.80;;
63699;SDS011;49845;47.130;142.766;2022-12-29T15:08:13;10.40;;;3.42;;
63699;SDS011;49845;47.130;142.766;2022-12-29T15:10:50;4.43;;;2.85;;
63699;SDS011;49845;47.130;142.766;2022-12-29T15:13:32;4.45;;;2.58;;
63699;SDS011;49845;47.130;142.766;2022-12-29T15:16:21;6.60;;;2.85;;
63699;SDS011;49845;47.130;142.766;2022-12-29T15:18:55;5.15;;;3.13;;
63699;SDS011;49845;47.130;142.766;2022-12-29T15:21:29;7.65;;;3.30;;
63699;SDS011;49845;47.130;142.766;2022-12-29T15:24:03;5.05;;;3.80;;
63699;SDS011;49845;47.130;142.766;2022-12-29T15:26:38;4.00;;;2.97;;
63699;SDS011;49845;47.130;142.766;2022-12-29T15:31:59;6.35;;;3.55;;
63699;SDS011;49845;47.130;142.766;2022-12-29T15:34:39;11.80;;;4.30;;
63699;SDS011;49845;47.130;142.766;2022-12-29T15:37:15;10.00;;;4.10;;
63699;SDS011;49845;47.130;142.766;2022-12-29T15:39:50;8.68;;;3.67;;
63699;SDS011;49845;47.130;142.766;2022-12-29T15:42:32;12.35;;;4.68;;
63699;SDS011;49845;47.130;142.766;2022-12-29T15:45:20;11.32;;;4.15;;
63699;SDS011;49845;47.130;142.766;2022-12-29T15:47:56;7.97;;;4.20;;
63699;SDS011;49845;47.130;142.766;2022-12-29T15:50:28;8.63;;;4.30;;
63699;SDS011;49845;47.130;142.766;2022-12-29T15:53:01;6.20;;;4.13;;
63699;SDS011;49845;47.130;142.766;2022-12-29T15:55:34;11.40;;;4.25;;
63699;SDS011;49845;47.130;142.766;2022-12-29T15:58:17;8.18;;;3.78;;
63699;SDS011;49845;47.130;142.766;2022-12-29T16:00:50;6.85;;;3.92;;
63699;SDS011;49845;47.130;142.766;2022-12-29T16:03:22;10.30;;;4.15;;
63699;SDS011;49845;47.130;142.766;2022-12-29T16:05:56;7.88;;;4.85;;
63699;SDS011;49845;47.130;142.766;2022-12-29T16:08:37;11.57;;;5.47;;
63699;SDS011;49845;47.130;142.766;2022-12-29T16:11:20;9.48;;;4.30;;
63699;SDS011;49845;47.130;142.766;2022-12-29T16:13:53;8.50;;;4.32;;
63699;SDS011;49845;47.130;142.766;2022-12-29T16:16:26;9.52;;;4.38;;
63699;SDS011;49845;47.130;142.766;2022-12-29T16:18:58;9.45;;;4.43;;
63699;SDS011;49845;47.130;142.766;2022-12-29T16:21:33;8.20;;;4.22;;
63699;SDS011;49845;47.130;142.766;2022-12-29T16:24:05;10.35;;;4.32;;
63699;SDS011;49845;47.130;142.766;2022-12-29T16:26:47;7.18;;;4.07;;
63699;SDS011;49845;47.130;142.766;2022-12-29T16:29:19;9.55;;;4.05;;
63699;SDS011;49845;47.130;142.766;2022-12-29T16:31:52;8.35;;;4.07;;
63699;SDS011;49845;47.130;142.766;2022-12-29T16:34:29;5.57;;;3.85;;
63699;SDS011;49845;47.130;142.766;2022-12-29T16:37:04;8.95;;;3.20;;
63699;SDS011;49845;47.130;142.766;2022-12-29T16:39:56;7.55;;;3.75;;
63699;SDS011;49845;47.130;142.766;2022-12-29T16:44:15;4.95;;;3.45;;
63699;SDS011;49845;47.130;142.766;2022-12-29T16:46:57;4.60;;;3.42;;
63699;SDS011;49845;47.130;142.766;2022-12-29T16:49:44;3.85;;;3.03;;
63699;SDS011;49845;47.130;142.766;2022-12-29T16:52:20;8.15;;;3.55;;
63699;SDS011;49845;47.130;142.766;2022-12-29T16:54:54;13.43;;;5.45;;
63699;SDS011;49845;47.130;142.766;2022-12-29T16:57:28;11.35;;;4.35;;
63699;SDS011;49845;47.130;142.766;2022-12-29T17:00:04;10.98;;;4.18;;
63699;SDS011;49845;47.130;142.766;2022-12-29T17:02:36;6.97;;;3.65;;
63699;SDS011;49845;47.130;142.766;2022-12-29T17:05:12;6.32;;;3.95;;
63699;SDS011;49845;47.130;142.766;2022-12-29T17:07:44;6.22;;;3.47;;
63699;SDS011;49845;47.130;142.766;2022-12-29T17:10:15;8.95;;;2.90;;
63699;SDS011;49845;47.130;142.766;2022-12-29T17:12:47;6.07;;;3.47;;
63699;SDS011;49845;47.130;142.766;2022-12-29T17:15:21;5.68;;;3.38;;
63699;SDS011;49845;47.130;142.766;2022-12-29T17:17:56;5.43;;;3.10;;
63699;SDS011;49845;47.130;142.766;2022-12-29T17:20:31;7.20;;;3.03;;
63699;SDS011;49845;47.130;142.766;2022-12-29T17:23:07;6.28;;;3.33;;
63699;SDS011;49845;47.130;142.766;2022-12-29T17:25:53;3.78;;;3.00;;
63699;SDS011;49845;47.130;142.766;2022-12-29T17:28:25;9.85;;;3.53;;
63699;SDS011;49845;47.130;142.766;2022-12-29T17:31:03;4.70;;;3.35;;
63699;SDS011;49845;47.130;142.766;2022-12-29T17:33:36;7.35;;;3.30;;
63699;SDS011;49845;47.130;142.766;2022-12-29T17:36:10;4.80;;;3.75;;
63699;SDS011;49845;47.130;142.766;2022-12-29T17:38:41;6.15;;;3.20;;
63699;SDS011;49845;47.130;142.766;2022-12-29T17:41:11;4.68;;;3.00;;
63699;SDS011;49845;47.130;142.766;2022-12-29T17:43:43;8.20;;;2.90;;
63699;SDS011;49845;47.130;142.766;2022-12-29T17:46:16;6.85;;;2.90;;
63699;SDS011;49845;47.130;142.766;2022-12-29T17:48:47;8.40;;;3.20;;
63699;SDS011;49845;47.130;142.766;2022-12-29T17:51:20;3.72;;;2.90;;